Trommald, Minnesota
Current Conditions -  °F | °C
As of 4:53 AM on Friday 28 Nov 2014 (Local Time) from KAIT Reporting Station
Light Rain Light Rain  
Wind Chill: 10°   Ceiling: 3200
Heat Index: 10°   Visibility: 7mi
Dew Point:   Wind: 3mph
Humidity: 73%   Direction: 90°E
Pressure: 30.04"   Gusts: NA
Location:  46.6149°N, 93.9625°W
Report Text: KAIT 281053Z AUTO 09003KT 7SM -RA SCT026 OVC032 M12/M16 A3004 RMK AO2
Loading
Personal Weather Stations






























Interactive Weather Map New forecast layout! Learn more

10-Day Weather Forecast

Advertisements
Track Severe Weather on mobile